sensor_id;sensor_type;location;lat;lon;timestamp;pressure;altitude;pressure_sealevel;temperature;humidity
48402;BME280;65988;52.422;16.746;2023-07-20T07:23:33;99672.22;;;34.42;38.42
48402;BME280;65988;52.422;16.746;2023-07-20T07:25:58;99355.50;;;33.73;37.60
48402;BME280;65988;52.422;16.746;2023-07-20T07:28:24;99530.50;;;33.87;37.85
48402;BME280;65988;52.422;16.746;2023-07-20T07:30:49;99431.38;;;34.13;37.54
48402;BME280;65988;52.422;16.746;2023-07-20T07:33:15;99273.41;;;32.50;38.60
48402;BME280;65988;52.422;16.746;2023-07-20T07:35:40;99499.50;;;33.39;38.96
48402;BME280;65988;52.422;16.746;2023-07-20T07:38:06;99454.53;;;33.55;39.27
48402;BME280;65988;52.422;16.746;2023-07-20T07:40:31;99485.94;;;33.93;37.82
48402;BME280;65988;52.422;16.746;2023-07-20T07:42:57;99337.91;;;33.52;37.44
48402;BME280;65988;52.422;16.746;2023-07-20T07:45:22;99471.72;;;35.00;37.07
48402;BME280;65988;52.422;16.746;2023-07-20T07:47:48;99327.41;;;34.95;36.35
48402;BME280;65988;52.422;16.746;2023-07-20T07:50:13;99326.22;;;34.29;36.70
48402;BME280;65988;52.422;16.746;2023-07-20T07:52:39;99409.78;;;34.76;36.75
48402;BME280;65988;52.422;16.746;2023-07-20T07:55:04;99417.97;;;33.81;36.87
48402;BME280;65988;52.422;16.746;2023-07-20T07:57:37;99501.66;;;33.76;37.38
48402;BME280;65988;52.422;16.746;2023-07-20T08:00:06;99595.28;;;35.44;35.99
48402;BME280;65988;52.422;16.746;2023-07-20T08:02:39;99674.69;;;35.65;36.18
48402;BME280;65988;52.422;16.746;2023-07-20T08:05:07;99664.50;;;38.21;33.59
48402;BME280;65988;52.422;16.746;2023-07-20T08:07:32;99381.75;;;36.78;34.27
48402;BME280;65988;52.422;16.746;2023-07-20T08:10:00;99266.78;;;35.18;34.86
48402;BME280;65988;52.422;16.746;2023-07-20T08:12:26;99403.59;;;34.76;35.78
48402;BME280;65988;52.422;16.746;2023-07-20T08:14:52;99438.00;;;34.86;36.88
48402;BME280;65988;52.422;16.746;2023-07-20T08:17:17;99353.25;;;35.45;35.14
48402;BME280;65988;52.422;16.746;2023-07-20T08:19:43;99510.34;;;34.74;36.48
48402;BME280;65988;52.422;16.746;2023-07-20T08:22:09;99478.78;;;33.08;38.55
48402;BME280;65988;52.422;16.746;2023-07-20T08:24:34;99453.56;;;33.42;38.82
48402;BME280;65988;52.422;16.746;2023-07-20T08:27:00;99415.00;;;33.43;38.33
48402;BME280;65988;52.422;16.746;2023-07-20T08:29:25;99511.03;;;33.47;38.81
48402;BME280;65988;52.422;16.746;2023-07-20T08:31:50;99356.84;;;33.51;37.41
48402;BME280;65988;52.422;16.746;2023-07-20T08:34:16;99370.59;;;33.16;38.23
48402;BME280;65988;52.422;16.746;2023-07-20T08:36:41;99363.00;;;33.13;38.35
48402;BME280;65988;52.422;16.746;2023-07-20T08:39:07;99375.81;;;32.97;38.91
48402;BME280;65988;52.422;16.746;2023-07-20T08:41:34;99702.28;;;33.46;39.30
48402;BME280;65988;52.422;16.746;2023-07-20T08:44:00;99467.91;;;32.89;39.16
48402;BME280;65988;52.422;16.746;2023-07-20T08:46:27;99539.25;;;32.29;39.33
48402;BME280;65988;52.422;16.746;2023-07-20T08:48:54;99607.72;;;33.25;38.84
48402;BME280;65988;52.422;16.746;2023-07-20T08:51:21;99615.91;;;33.10;38.78
48402;BME280;65988;52.422;16.746;2023-07-20T08:53:47;99638.47;;;31.42;41.43
48402;BME280;65988;52.422;16.746;2023-07-20T08:56:13;99670.97;;;29.99;44.08
48402;BME280;65988;52.422;16.746;2023-07-20T08:58:43;99813.16;;;29.83;45.55
48402;BME280;65988;52.422;16.746;2023-07-20T09:01:10;99510.56;;;29.44;42.83
48402;BME280;65988;52.422;16.746;2023-07-20T09:03:39;99217.72;;;28.41;40.89
48402;BME280;65988;52.422;16.746;2023-07-20T09:06:05;99390.31;;;28.96;41.00
48402;BME280;65988;52.422;16.746;2023-07-20T09:08:56;99374.81;;;29.29;41.17
48402;BME280;65988;52.422;16.746;2023-07-20T09:14:53;99551.19;;;28.07;44.15
48402;BME280;65988;52.422;16.746;2023-07-20T09:17:41;99463.75;;;26.77;45.81
48402;BME280;65988;52.422;16.746;2023-07-20T09:20:40;99648.69;;;27.82;45.65
48402;BME280;65988;52.422;16.746;2023-07-20T09:23:32;99406.38;;;27.48;45.52
48402;BME280;65988;52.422;16.746;2023-07-20T09:25:57;99743.78;;;28.76;45.73
48402;BME280;65988;52.422;16.746;2023-07-20T09:28:25;99632.06;;;30.05;43.34
48402;BME280;65988;52.422;16.746;2023-07-20T09:30:51;99622.06;;;31.45;42.32
48402;BME280;65988;52.422;16.746;2023-07-20T09:33:21;99944.16;;;34.95;40.38
48402;BME280;65988;52.422;16.746;2023-07-20T09:35:46;99596.34;;;34.28;40.13
48402;BME280;65988;52.422;16.746;2023-07-20T09:38:11;99688.16;;;36.21;38.04
48402;BME280;65988;52.422;16.746;2023-07-20T09:40:39;99736.44;;;37.32;36.57
48402;BME280;65988;52.422;16.746;2023-07-20T09:43:07;99794.97;;;37.67;37.01
48402;BME280;65988;52.422;16.746;2023-07-20T09:45:41;99621.59;;;36.35;36.32
48402;BME280;65988;52.422;16.746;2023-07-20T09:48:08;99612.16;;;35.33;36.28
48402;BME280;65988;52.422;16.746;2023-07-20T09:50:36;99713.47;;;35.51;37.43
48402;BME280;65988;52.422;16.746;2023-07-20T09:53:05;99606.84;;;35.88;36.29
48402;BME280;65988;52.422;16.746;2023-07-20T09:55:32;99646.19;;;36.38;36.07
48402;BME280;65988;52.422;16.746;2023-07-20T09:57:59;99794.16;;;37.66;35.52
48402;BME280;65988;52.422;16.746;2023-07-20T10:00:24;99655.25;;;36.86;36.20
48402;BME280;65988;52.422;16.746;2023-07-20T10:02:52;99781.47;;;37.13;36.10
48402;BME280;65988;52.422;16.746;2023-07-20T10:05:19;99663.22;;;36.32;35.96
48402;BME280;65988;52.422;16.746;2023-07-20T10:07:48;99701.91;;;37.10;35.40
48402;BME280;65988;52.422;16.746;2023-07-20T10:10:15;99831.38;;;37.76;35.72
48402;BME280;65988;52.422;16.746;2023-07-20T10:12:43;99909.44;;;38.37;36.07
48402;BME280;65988;52.422;16.746;2023-07-20T10:15:23;99750.63;;;39.03;33.89
48402;BME280;65988;52.422;16.746;2023-07-20T10:20:27;99741.53;;;38.93;33.37
48402;BME280;65988;52.422;16.746;2023-07-20T10:22:54;99827.72;;;37.94;35.61
48402;BME280;65988;52.422;16.746;2023-07-20T10:25:22;99731.06;;;38.27;33.89
48402;BME280;65988;52.422;16.746;2023-07-20T10:27:48;99468.00;;;36.48;34.08
48402;BME280;65988;52.422;16.746;2023-07-20T10:30:14;99640.84;;;36.50;35.06
48402;BME280;65988;52.422;16.746;2023-07-20T10:32:41;99539.03;;;35.86;34.43
48402;BME280;65988;52.422;16.746;2023-07-20T10:35:15;99597.81;;;35.83;35.11
48402;BME280;65988;52.422;16.746;2023-07-20T10:37:53;99694.91;;;36.30;35.10
48402;BME280;65988;52.422;16.746;2023-07-20T10:40:36;99772.81;;;38.36;33.85
48402;BME280;65988;52.422;16.746;2023-07-20T14:52:53;99397.38;;;35.19;33.51
48402;BME280;65988;52.422;16.746;2023-07-20T14:55:19;99370.75;;;35.48;33.22
48402;BME280;65988;52.422;16.746;2023-07-20T14:57:45;99200.09;;;35.15;32.28
48402;BME280;65988;52.422;16.746;2023-07-20T15:00:13;99369.72;;;35.49;32.46
48402;BME280;65988;52.422;16.746;2023-07-20T15:02:40;99437.97;;;36.09;32.41
48402;BME280;65988;52.422;16.746;2023-07-20T15:05:07;99469.34;;;36.27;32.04
48402;BME280;65988;52.422;16.746;2023-07-20T15:07:32;99311.22;;;37.05;31.25
48402;BME280;65988;52.422;16.746;2023-07-20T15:09:58;99283.09;;;36.48;31.61
48402;BME280;65988;52.422;16.746;2023-07-20T15:12:23;99197.88;;;35.78;31.75
48402;BME280;65988;52.422;16.746;2023-07-20T15:15:12;99407.25;;;36.88;31.04
48402;BME280;65988;52.422;16.746;2023-07-20T15:17:38;99520.13;;;37.37;31.15
48402;BME280;65988;52.422;16.746;2023-07-20T15:20:05;99411.59;;;36.41;31.18
48402;BME280;65988;52.422;16.746;2023-07-20T15:22:31;99445.78;;;35.80;32.17
48402;BME280;65988;52.422;16.746;2023-07-20T15:28:44;99430.72;;;37.69;30.39
48402;BME280;65988;52.422;16.746;2023-07-20T15:31:12;99196.38;;;36.58;30.58
48402;BME280;65988;52.422;16.746;2023-07-20T15:33:41;99472.91;;;37.22;31.36
48402;BME280;65988;52.422;16.746;2023-07-20T15:36:08;99216.22;;;35.93;31.72
48402;BME280;65988;52.422;16.746;2023-07-20T15:38:36;99238.88;;;35.19;32.90
48402;BME280;65988;52.422;16.746;2023-07-20T15:41:01;99239.53;;;35.03;32.99
48402;BME280;65988;52.422;16.746;2023-07-20T15:43:27;99451.78;;;34.89;33.61
48402;BME280;65988;52.422;16.746;2023-07-20T15:46:01;99482.19;;;35.08;33.84
48402;BME280;65988;52.422;16.746;2023-07-20T15:48:29;99309.50;;;33.83;34.88
48402;BME280;65988;52.422;16.746;2023-07-20T15:50:54;99215.06;;;33.81;34.22
48402;BME280;65988;52.422;16.746;2023-07-20T15:53:21;99520.78;;;34.64;34.80
48402;BME280;65988;52.422;16.746;2023-07-20T15:55:54;99412.94;;;33.91;34.66
48402;BME280;65988;52.422;16.746;2023-07-20T15:58:22;99290.41;;;32.89;36.33
48402;BME280;65988;52.422;16.746;2023-07-20T16:00:53;99543.16;;;33.60;36.18
48402;BME280;65988;52.422;16.746;2023-07-20T16:03:19;99370.13;;;32.60;37.06
48402;BME280;65988;52.422;16.746;2023-07-20T16:05:45;99408.75;;;33.56;36.37
48402;BME280;65988;52.422;16.746;2023-07-20T16:08:10;99423.91;;;33.83;35.58
48402;BME280;65988;52.422;16.746;2023-07-20T16:10:35;99484.31;;;33.85;36.27
48402;BME280;65988;52.422;16.746;2023-07-20T16:13:01;99310.72;;;33.49;35.47
48402;BME280;65988;52.422;16.746;2023-07-20T16:15:26;99259.53;;;32.86;36.23
48402;BME280;65988;52.422;16.746;2023-07-20T16:17:51;99338.25;;;33.24;36.20
48402;BME280;65988;52.422;16.746;2023-07-20T16:20:16;99391.47;;;31.86;38.13
48402;BME280;65988;52.422;16.746;2023-07-20T16:22:42;99421.59;;;32.35;38.53
48402;BME280;65988;52.422;16.746;2023-07-20T16:35:22;99793.88;;;32.59;41.55
48402;BME280;65988;52.422;16.746;2023-07-20T16:38:23;99772.69;;;32.22;41.65
48402;BME280;65988;52.422;16.746;2023-07-20T16:41:21;99828.38;;;32.75;41.54
48402;BME280;65988;52.422;16.746;2023-07-20T16:46:53;99799.16;;;33.42;40.73
48402;BME280;65988;52.422;16.746;2023-07-20T16:49:27;99751.94;;;34.08;39.52
48402;BME280;65988;52.422;16.746;2023-07-20T16:52:00;99672.81;;;33.25;39.93
48402;BME280;65988;52.422;16.746;2023-07-20T16:54:40;99813.97;;;34.59;38.93
48402;BME280;65988;52.422;16.746;2023-07-20T16:57:16;99743.56;;;34.57;38.75
48402;BME280;65988;52.422;16.746;2023-07-20T17:02:18;99390.66;;;32.93;38.74
48402;BME280;65988;52.422;16.746;2023-07-20T17:04:47;99633.06;;;34.21;37.80
48402;BME280;65988;52.422;16.746;2023-07-20T17:07:15;99691.66;;;34.18;38.30
48402;BME280;65988;52.422;16.746;2023-07-20T17:09:42;99573.34;;;33.94;37.52
48402;BME280;65988;52.422;16.746;2023-07-20T17:12:19;99382.09;;;33.75;36.78
48402;BME280;65988;52.422;16.746;2023-07-20T17:14:45;99427.38;;;33.45;38.11
48402;BME280;65988;52.422;16.746;2023-07-20T17:17:10;99397.16;;;33.24;37.98
48402;BME280;65988;52.422;16.746;2023-07-20T17:19:35;99420.09;;;32.93;38.34
48402;BME280;65988;52.422;16.746;2023-07-20T17:22:01;99262.69;;;32.63;37.70
48402;BME280;65988;52.422;16.746;2023-07-20T17:24:27;99344.44;;;32.05;39.09
48402;BME280;65988;52.422;16.746;2023-07-20T17:26:52;99287.66;;;32.03;38.56
48402;BME280;65988;52.422;16.746;2023-07-20T17:29:17;99337.44;;;32.04;38.45
48402;BME280;65988;52.422;16.746;2023-07-20T17:31:43;99294.06;;;31.96;38.61
48402;BME280;65988;52.422;16.746;2023-07-20T17:34:08;99273.06;;;32.33;37.76
48402;BME280;65988;52.422;16.746;2023-07-20T17:36:34;99370.13;;;32.06;38.16
48402;BME280;65988;52.422;16.746;2023-07-20T17:38:59;99206.75;;;30.94;38.19
48402;BME280;65988;52.422;16.746;2023-07-20T17:41:25;99127.72;;;31.00;37.98
48402;BME280;65988;52.422;16.746;2023-07-20T17:43:50;99310.25;;;31.67;38.01
48402;BME280;65988;52.422;16.746;2023-07-20T17:46:15;99220.03;;;31.96;37.49
48402;BME280;65988;52.422;16.746;2023-07-20T17:48:41;99326.66;;;31.51;38.25
48402;BME280;65988;52.422;16.746;2023-07-20T17:51:06;99312.09;;;31.60;37.84
48402;BME280;65988;52.422;16.746;2023-07-20T17:53:32;99157.28;;;30.92;37.40
48402;BME280;65988;52.422;16.746;2023-07-20T17:55:58;99179.03;;;30.33;37.46
48402;BME280;65988;52.422;16.746;2023-07-20T17:58:23;99067.56;;;30.70;37.34
48402;BME280;65988;52.422;16.746;2023-07-20T18:00:48;99128.56;;;30.94;37.34
48402;BME280;65988;52.422;16.746;2023-07-20T18:03:14;99044.63;;;30.14;37.51
48402;BME280;65988;52.422;16.746;2023-07-20T18:05:39;99069.84;;;30.18;37.38
48402;BME280;65988;52.422;16.746;2023-07-20T18:08:05;99145.00;;;30.42;37.55
48402;BME280;65988;52.422;16.746;2023-07-20T18:10:30;99065.50;;;30.04;37.38
48402;BME280;65988;52.422;16.746;2023-07-20T18:12:56;99177.88;;;31.11;36.41
48402;BME280;65988;52.422;16.746;2023-07-20T18:15:21;99225.06;;;30.55;37.88
48402;BME280;65988;52.422;16.746;2023-07-20T18:17:47;99085.69;;;31.02;36.21
48402;BME280;65988;52.422;16.746;2023-07-20T18:20:12;99033.09;;;30.96;36.06
48402;BME280;65988;52.422;16.746;2023-07-20T18:22:38;99047.34;;;30.34;37.06
48402;BME280;65988;52.422;16.746;2023-07-20T18:25:03;99152.13;;;30.77;36.33
48402;BME280;65988;52.422;16.746;2023-07-20T18:27:30;99145.28;;;30.47;36.62
48402;BME280;65988;52.422;16.746;2023-07-20T18:29:56;99088.50;;;30.80;36.30
48402;BME280;65988;52.422;16.746;2023-07-20T18:32:22;99108.63;;;30.83;36.20
48402;BME280;65988;52.422;16.746;2023-07-20T18:34:47;99084.31;;;30.44;36.83
48402;BME280;65988;52.422;16.746;2023-07-20T18:37:13;99027.56;;;30.84;36.30
48402;BME280;65988;52.422;16.746;2023-07-20T18:39:38;99054.47;;;30.20;37.36
48402;BME280;65988;52.422;16.746;2023-07-20T18:42:04;99275.09;;;30.88;36.76
48402;BME280;65988;52.422;16.746;2023-07-20T18:44:29;99043.69;;;30.42;36.67
48402;BME280;65988;52.422;16.746;2023-07-20T18:46:55;99191.84;;;30.58;36.93
48402;BME280;65988;52.422;16.746;2023-07-20T18:49:21;99125.25;;;30.30;36.87
48402;BME280;65988;52.422;16.746;2023-07-20T18:51:46;99037.16;;;29.90;37.41
48402;BME280;65988;52.422;16.746;2023-07-20T18:54:14;99027.44;;;29.75;37.37
48402;BME280;65988;52.422;16.746;2023-07-20T18:56:40;99063.97;;;29.88;37.63
48402;BME280;65988;52.422;16.746;2023-07-20T18:59:05;99003.56;;;29.95;37.12
48402;BME280;65988;52.422;16.746;2023-07-20T19:01:30;99041.03;;;29.87;37.49
48402;BME280;65988;52.422;16.746;2023-07-20T19:03:56;99058.44;;;29.90;37.38
48402;BME280;65988;52.422;16.746;2023-07-20T19:06:24;99335.00;;;30.23;38.80
48402;BME280;65988;52.422;16.746;2023-07-20T19:08:50;99171.25;;;29.75;38.89
48402;BME280;65988;52.422;16.746;2023-07-20T19:11:15;99069.44;;;29.45;39.03
48402;BME280;65988;52.422;16.746;2023-07-20T19:13:40;99267.53;;;29.72;39.54
48402;BME280;65988;52.422;16.746;2023-07-20T19:16:06;99124.72;;;29.43;39.01
48402;BME280;65988;52.422;16.746;2023-07-20T19:18:33;99259.28;;;29.24;39.62
48402;BME280;65988;52.422;16.746;2023-07-20T19:21:02;99301.56;;;29.77;38.69
48402;BME280;65988;52.422;16.746;2023-07-20T19:23:27;99120.59;;;28.97;39.48
48402;BME280;65988;52.422;16.746;2023-07-20T19:25:53;99230.06;;;28.94;40.10
48402;BME280;65988;52.422;16.746;2023-07-20T19:28:22;99331.56;;;29.64;39.66
48402;BME280;65988;52.422;16.746;2023-07-20T19:30:49;99383.25;;;29.69;39.83
48402;BME280;65988;52.422;16.746;2023-07-20T19:33:15;99203.28;;;29.17;39.77
48402;BME280;65988;52.422;16.746;2023-07-20T19:35:40;99167.06;;;29.16;39.97
48402;BME280;65988;52.422;16.746;2023-07-20T19:38:05;99135.63;;;29.05;39.97
48402;BME280;65988;52.422;16.746;2023-07-20T19:40:31;99319.44;;;29.40;39.80
48402;BME280;65988;52.422;16.746;2023-07-20T19:42:59;99404.09;;;29.29;40.31
48402;BME280;65988;52.422;16.746;2023-07-20T19:45:25;99154.88;;;28.85;40.47
48402;BME280;65988;52.422;16.746;2023-07-20T19:47:50;99259.41;;;29.00;40.02
48402;BME280;65988;52.422;16.746;2023-07-20T19:50:16;99108.31;;;28.96;39.63
48402;BME280;65988;52.422;16.746;2023-07-20T19:52:41;99160.41;;;28.68;40.34
48402;BME280;65988;52.422;16.746;2023-07-20T19:55:09;99335.13;;;29.19;39.92
48402;BME280;65988;52.422;16.746;2023-07-20T19:57:34;99181.56;;;28.62;40.11
48402;BME280;65988;52.422;16.746;2023-07-20T20:00:00;99158.03;;;28.44;40.24
48402;BME280;65988;52.422;16.746;2023-07-20T20:02:26;99113.31;;;28.47;40.31
48402;BME280;65988;52.422;16.746;2023-07-20T20:04:52;99169.16;;;28.47;40.30
48402;BME280;65988;52.422;16.746;2023-07-20T20:07:17;99102.47;;;28.64;39.98
48402;BME280;65988;52.422;16.746;2023-07-20T20:09:44;99209.94;;;28.70;40.10
48402;BME280;65988;52.422;16.746;2023-07-20T20:12:09;99109.72;;;28.70;39.29
48402;BME280;65988;52.422;16.746;2023-07-20T20:14:34;99124.78;;;28.63;40.50
48402;BME280;65988;52.422;16.746;2023-07-20T20:17:00;99116.66;;;28.20;40.63
48402;BME280;65988;52.422;16.746;2023-07-20T20:19:28;99272.53;;;28.57;40.62
48402;BME280;65988;52.422;16.746;2023-07-20T20:21:55;99170.63;;;28.50;40.70
